createdAt,value
2019-05-06T00:00:24.504Z,81.12
2019-05-06T00:01:23.958Z,81.43
2019-05-06T00:02:24.562Z,81.54
2019-05-06T00:03:24.826Z,81.64
2019-05-06T00:04:24.668Z,81.95
2019-05-06T00:05:25.085Z,82.19
2019-05-06T00:06:23.688Z,81.64
2019-05-06T00:07:24.274Z,81.54
2019-05-06T00:08:23.671Z,81.47
2019-05-06T00:09:24.056Z,81.57
2019-05-06T00:10:24.526Z,81.95
2019-05-06T00:11:23.806Z,81.68
2019-05-06T00:12:23.933Z,81.47
2019-05-06T00:13:24.183Z,81.99
2019-05-06T00:14:23.536Z,82.40
2019-05-06T00:15:23.480Z,81.99
2019-05-06T00:16:23.771Z,82.09
2019-05-06T00:17:23.943Z,82.09
2019-05-06T00:18:24.518Z,81.57
2019-05-06T00:19:24.645Z,81.57
2019-05-06T00:20:24.328Z,81.16
2019-05-06T00:21:24.428Z,81.26
2019-05-06T00:22:23.782Z,81.05
2019-05-06T00:23:24.829Z,81.05
2019-05-06T00:24:23.924Z,81.37
2019-05-06T00:25:24.266Z,81.47
2019-05-06T00:26:24.329Z,81.78
2019-05-06T00:27:24.663Z,81.99
2019-05-06T00:28:24.403Z,81.88
2019-05-06T00:29:24.178Z,81.88
2019-05-06T00:30:24.290Z,81.68
2019-05-06T00:31:24.005Z,82.23
2019-05-06T00:32:24.273Z,81.88
2019-05-06T00:33:24.266Z,82.03
2019-05-06T00:34:24.475Z,82.13
2019-05-06T00:35:23.466Z,81.61
2019-05-06T00:36:23.716Z,82.03
2019-05-06T00:37:24.124Z,82.23
2019-05-06T00:38:24.499Z,82.13
2019-05-06T00:39:24.296Z,81.47
2019-05-06T00:40:24.341Z,81.78
2019-05-06T00:41:24.550Z,82.54
2019-05-06T00:42:24.186Z,82.44
2019-05-06T00:43:23.568Z,82.34
2019-05-06T00:44:23.885Z,81.82
2019-05-06T00:45:24.379Z,81.92
2019-05-06T00:46:24.325Z,82.75
2019-05-06T00:47:24.109Z,83.06
2019-05-06T00:48:24.291Z,83.68
2019-05-06T00:49:23.840Z,84.20
2019-05-06T00:50:23.972Z,83.47
2019-05-06T00:51:24.169Z,83.68
2019-05-06T00:52:23.898Z,85.24
2019-05-06T00:53:23.832Z,85.27
2019-05-06T00:54:22.365Z,85.27
2019-05-06T00:55:24.122Z,85.27
2019-05-06T00:56:24.241Z,85.58
2019-05-06T00:57:23.389Z,85.27
2019-05-06T00:58:23.854Z,85.06
2019-05-06T00:59:23.825Z,84.44
2019-05-06T01:00:24.263Z,85.48
2019-05-06T01:01:27.104Z,85.69
2019-05-06T01:02:23.516Z,85.89
2019-05-06T01:03:23.938Z,85.89
2019-05-06T01:04:24.379Z,85.79
2019-05-06T01:05:24.295Z,86.31
2019-05-06T01:06:22.247Z,86.10
2019-05-06T01:07:23.666Z,86.31
2019-05-06T01:08:24.042Z,87.18
2019-05-06T01:09:23.468Z,87.59
2019-05-06T01:10:23.818Z,87.59
2019-05-06T01:11:23.886Z,87.49
2019-05-06T01:12:23.974Z,87.38
2019-05-06T01:13:24.060Z,87.28
2019-05-06T01:14:23.534Z,87.90
2019-05-06T01:15:23.830Z,87.70
2019-05-06T01:16:22.136Z,87.38
2019-05-06T01:17:23.859Z,87.87
2019-05-06T01:18:22.092Z,87.76
2019-05-06T01:19:23.562Z,87.97
2019-05-06T01:20:22.069Z,88.07
2019-05-06T01:21:23.796Z,88.39
2019-05-06T01:22:22.047Z,88.18
2019-05-06T01:23:23.463Z,87.66
2019-05-06T01:24:23.804Z,87.45
2019-05-06T01:25:23.754Z,87.35
2019-05-06T01:26:24.019Z,87.76
2019-05-06T01:27:23.660Z,87.76
2019-05-06T01:28:22.000Z,87.97
2019-05-06T01:29:23.876Z,87.66
2019-05-06T01:30:24.232Z,87.76
2019-05-06T01:31:21.973Z,87.87
2019-05-06T01:32:23.664Z,87.76
2019-05-06T01:33:23.744Z,88.18
2019-05-06T01:34:21.915Z,87.35
2019-05-06T01:35:21.906Z,87.66
2019-05-06T01:36:21.919Z,87.45
2019-05-06T01:37:23.640Z,87.30
2019-05-06T01:38:24.055Z,87.51
2019-05-06T01:39:21.863Z,87.51
2019-05-06T01:40:23.805Z,86.68
2019-05-06T01:41:24.258Z,87.41
2019-05-06T01:42:21.841Z,87.51
2019-05-06T01:43:24.062Z,86.89
2019-05-06T01:44:21.804Z,87.51
2019-05-06T01:45:23.672Z,87.10
2019-05-06T01:46:21.810Z,87.30
2019-05-06T01:47:23.728Z,87.35
2019-05-06T01:48:21.764Z,87.20
2019-05-06T01:49:21.763Z,87.30
2019-05-06T01:50:23.550Z,87.30
2019-05-06T01:51:23.876Z,87.76
2019-05-06T01:52:23.903Z,87.72
2019-05-06T01:53:21.706Z,87.51
2019-05-06T01:54:21.694Z,87.41
2019-05-06T01:55:23.773Z,87.66
2019-05-06T01:56:21.693Z,87.72
2019-05-06T01:57:21.678Z,87.93
2019-05-06T01:58:21.654Z,87.97
2019-05-06T01:59:21.647Z,88.39
2019-05-06T02:00:23.214Z,87.62
2019-05-06T02:01:21.620Z,87.82
2019-05-06T02:02:23.706Z,87.51
2019-05-06T02:03:21.599Z,88.03
2019-05-06T02:04:21.609Z,87.62
2019-05-06T02:05:21.592Z,87.72
2019-05-06T02:06:21.575Z,87.82
2019-05-06T02:07:23.579Z,87.82
2019-05-06T02:08:21.543Z,87.82
2019-05-06T02:09:21.553Z,87.82
2019-05-06T02:10:23.706Z,87.82
2019-05-06T02:11:21.513Z,87.76
2019-05-06T02:12:21.498Z,87.93
2019-05-06T02:13:23.405Z,88.03
2019-05-06T02:14:21.485Z,87.41
2019-05-06T02:15:23.402Z,87.24
2019-05-06T02:16:23.924Z,87.45
2019-05-06T02:17:23.359Z,87.55
2019-05-06T02:18:21.437Z,87.24
2019-05-06T02:19:21.421Z,87.10
2019-05-06T02:20:21.435Z,86.68
2019-05-06T02:21:24.482Z,86.72
2019-05-06T02:22:21.389Z,86.58
2019-05-06T02:23:21.388Z,86.41
2019-05-06T02:24:21.364Z,85.44
2019-05-06T02:25:21.381Z,85.86
2019-05-06T02:26:23.776Z,85.44
2019-05-06T02:27:21.340Z,86.17
2019-05-06T02:28:23.486Z,85.75
2019-05-06T02:29:21.313Z,85.96
2019-05-06T02:30:21.320Z,86.10
2019-05-06T02:31:21.294Z,86.41
2019-05-06T02:32:30.048Z,86.17
2019-05-06T02:33:24.640Z,86.07
2019-05-06T02:34:21.259Z,86.27
2019-05-06T02:35:21.280Z,86.72
2019-05-06T02:36:21.241Z,87.30
2019-05-06T02:37:21.228Z,87.30
2019-05-06T02:38:23.352Z,87.66
2019-05-06T02:39:23.525Z,87.30
2019-05-06T02:40:24.491Z,87.45
2019-05-06T02:41:23.295Z,87.41
2019-05-06T02:42:23.661Z,87.35
2019-05-06T02:43:23.157Z,87.55
2019-05-06T02:44:23.918Z,87.66
2019-05-06T02:45:24.025Z,87.24
2019-05-06T02:46:23.547Z,87.66
2019-05-06T02:47:22.998Z,87.35
2019-05-06T02:48:22.950Z,87.35
2019-05-06T02:49:23.644Z,87.35
2019-05-06T02:50:23.933Z,87.55
2019-05-06T02:51:24.143Z,87.55
2019-05-06T02:52:22.974Z,86.83
2019-05-06T02:53:23.404Z,86.62
2019-05-06T02:54:23.399Z,86.72
2019-05-06T02:55:23.378Z,86.62
2019-05-06T02:56:23.821Z,86.00
2019-05-06T02:57:23.528Z,85.89
2019-05-06T02:58:23.454Z,86.00
2019-05-06T02:59:23.835Z,86.10
2019-05-06T03:00:23.667Z,85.89
2019-05-06T03:01:23.395Z,86.21
2019-05-06T03:02:37.911Z,86.00
2019-05-06T03:03:23.266Z,86.66
2019-05-06T03:04:23.432Z,87.59
2019-05-06T03:05:23.485Z,87.49
2019-05-06T03:06:23.539Z,86.45
2019-05-06T03:07:23.336Z,86.76
2019-05-06T03:08:23.499Z,86.55
2019-05-06T03:09:23.228Z,86.25
2019-05-06T03:10:24.373Z,86.04
2019-05-06T03:11:23.744Z,86.45
2019-05-06T03:12:22.831Z,87.12
2019-05-06T03:13:23.628Z,86.87
2019-05-06T03:14:23.378Z,87.63
2019-05-06T03:15:24.033Z,87.43
2019-05-06T03:16:23.505Z,86.87
2019-05-06T03:17:23.323Z,86.49
2019-05-06T03:18:23.302Z,86.04
2019-05-06T03:19:23.787Z,85.94
2019-05-06T03:20:23.576Z,86.08
2019-05-06T03:21:20.757Z,86.15
2019-05-06T03:22:24.065Z,85.73
2019-05-06T03:23:23.710Z,85.87
2019-05-06T03:24:23.438Z,85.77
2019-05-06T03:25:23.908Z,86.39
2019-05-06T03:26:23.407Z,86.80
2019-05-06T03:27:23.361Z,86.60
2019-05-06T03:28:22.592Z,85.87
2019-05-06T03:29:20.685Z,86.39
2019-05-06T03:30:25.001Z,86.29
2019-05-06T03:31:25.964Z,86.08
2019-05-06T03:32:24.807Z,86.70
2019-05-06T03:33:44.500Z,87.32
2019-05-06T03:34:38.307Z,86.60
2019-05-06T03:35:40.471Z,87.63
2019-05-06T03:36:27.160Z,87.53
2019-05-06T03:37:23.840Z,87.43
2019-05-06T03:38:22.915Z,87.32
2019-05-06T03:39:23.189Z,87.53
2019-05-06T03:40:23.103Z,87.63
2019-05-06T03:41:26.098Z,87.22
2019-05-06T03:42:23.053Z,87.57
2019-05-06T03:43:23.015Z,86.91
2019-05-06T03:44:23.607Z,87.57
2019-05-06T03:45:23.559Z,87.32
2019-05-06T03:46:23.120Z,87.57
2019-05-06T03:47:23.269Z,87.57
2019-05-06T03:48:23.778Z,87.37
2019-05-06T03:49:20.446Z,87.78
2019-05-06T03:50:20.460Z,88.13
2019-05-06T03:51:23.115Z,88.34
2019-05-06T03:52:22.935Z,88.23
2019-05-06T03:53:23.087Z,88.13
2019-05-06T03:54:23.056Z,88.23
2019-05-06T03:55:23.294Z,88.13
2019-05-06T03:56:23.448Z,88.65
2019-05-06T03:57:22.928Z,88.23
2019-05-06T03:58:23.643Z,88.44
2019-05-06T03:59:23.347Z,88.40
2019-05-06T04:00:23.491Z,88.96
2019-05-06T04:01:20.333Z,89.48
2019-05-06T04:02:20.299Z,89.75
2019-05-06T04:03:24.570Z,89.13
2019-05-06T04:04:23.382Z,89.54
2019-05-06T04:05:20.277Z,88.71
2019-05-06T04:06:20.283Z,87.99
2019-05-06T04:07:23.168Z,88.71
2019-05-06T04:08:21.388Z,89.23
2019-05-06T04:09:20.241Z,88.92
2019-05-06T04:10:22.680Z,87.99
2019-05-06T04:11:22.648Z,87.99
2019-05-06T04:12:23.160Z,87.95
2019-05-06T04:13:20.188Z,87.78
2019-05-06T04:14:20.185Z,86.49
2019-05-06T04:15:23.437Z,87.43
2019-05-06T04:16:23.071Z,86.29
2019-05-06T04:17:20.137Z,86.29
2019-05-06T04:18:20.134Z,86.70
2019-05-06T04:19:20.125Z,86.70
2019-05-06T04:20:23.384Z,87.22
2019-05-06T04:21:23.702Z,87.74
2019-05-06T04:22:23.390Z,87.43
2019-05-06T04:23:23.179Z,87.95
2019-05-06T04:24:22.756Z,88.26
2019-05-06T04:25:23.157Z,88.36
2019-05-06T04:26:20.040Z,88.88
2019-05-06T04:27:22.582Z,88.88
2019-05-06T04:28:20.035Z,88.67
2019-05-06T04:29:20.007Z,88.15
2019-05-06T04:30:20.003Z,87.43
2019-05-06T04:31:22.697Z,87.95
2019-05-06T04:32:23.245Z,88.36
2019-05-06T04:33:19.969Z,88.36
2019-05-06T04:34:22.648Z,87.95
2019-05-06T04:35:22.749Z,87.84
2019-05-06T04:36:19.933Z,87.53
2019-05-06T04:37:19.922Z,87.63
2019-05-06T04:38:23.234Z,87.70
2019-05-06T04:39:19.901Z,87.49
2019-05-06T04:40:19.891Z,87.74
2019-05-06T04:41:23.098Z,88.01
2019-05-06T04:42:23.325Z,88.15
2019-05-06T04:43:23.535Z,88.11
2019-05-06T04:44:23.758Z,88.84
2019-05-06T04:45:23.265Z,88.53
2019-05-06T04:46:19.820Z,87.38
2019-05-06T04:47:19.841Z,88.53
2019-05-06T04:48:19.834Z,87.59
2019-05-06T04:49:19.791Z,87.80
2019-05-06T04:50:19.781Z,87.59
2019-05-06T04:51:19.778Z,87.80
2019-05-06T04:52:22.862Z,87.35
2019-05-06T04:53:26.443Z,86.62
2019-05-06T04:54:26.179Z,87.24
2019-05-06T04:55:22.625Z,87.35
2019-05-06T04:56:19.727Z,87.55
2019-05-06T04:57:19.702Z,86.31
2019-05-06T04:58:23.067Z,87.45
2019-05-06T04:59:19.683Z,86.83
2019-05-06T05:00:19.671Z,85.69
2019-05-06T05:01:22.912Z,85.69
2019-05-06T05:02:19.769Z,84.09
2019-05-06T05:03:22.511Z,85.24
2019-05-06T05:04:27.706Z,86.17
2019-05-06T05:05:23.000Z,87.30
2019-05-06T05:06:19.605Z,87.30
2019-05-06T05:07:22.293Z,85.55
2019-05-06T05:08:19.582Z,87.55
2019-05-06T05:09:19.576Z,86.68
2019-05-06T05:10:19.586Z,86.37
2019-05-06T05:11:19.554Z,85.55
2019-05-06T05:12:19.540Z,84.72
2019-05-06T05:13:19.537Z,85.86
2019-05-06T05:14:24.749Z,85.55
2019-05-06T05:15:22.718Z,85.96
2019-05-06T05:16:19.501Z,86.27
2019-05-06T05:17:19.499Z,85.71
2019-05-06T05:18:19.474Z,84.09
2019-05-06T05:19:19.461Z,86.27
2019-05-06T05:20:19.470Z,86.27
2019-05-06T05:21:19.444Z,84.30
2019-05-06T05:22:19.429Z,83.95
2019-05-06T05:23:19.424Z,85.71
2019-05-06T05:24:19.408Z,86.23
2019-05-06T05:25:19.420Z,84.06
2019-05-06T05:26:19.383Z,85.61
2019-05-06T05:27:19.373Z,85.50
2019-05-06T05:28:19.362Z,85.50
2019-05-06T05:29:19.370Z,85.40
2019-05-06T05:30:19.340Z,85.19
2019-05-06T05:31:19.349Z,85.82
2019-05-06T05:32:19.350Z,85.82
2019-05-06T05:33:19.314Z,85.50
2019-05-06T05:34:19.339Z,84.47
2019-05-06T05:35:19.290Z,85.61
2019-05-06T05:36:19.297Z,86.02
2019-05-06T05:37:19.269Z,86.54
2019-05-06T05:38:19.252Z,87.27
2019-05-06T05:39:19.276Z,87.78
2019-05-06T05:40:19.249Z,87.78
2019-05-06T05:41:19.289Z,86.02
2019-05-06T05:42:19.208Z,85.19
2019-05-06T05:43:19.246Z,84.06
2019-05-06T05:44:19.203Z,86.50
2019-05-06T05:45:19.191Z,86.23
2019-05-06T05:46:19.203Z,84.01
2019-05-06T05:47:19.167Z,83.91
2019-05-06T05:48:19.159Z,85.16
2019-05-06T05:49:21.846Z,85.36
2019-05-06T05:50:19.160Z,86.23
2019-05-06T05:51:19.120Z,85.99
2019-05-06T05:52:19.132Z,86.33
2019-05-06T05:53:19.103Z,84.74
2019-05-06T05:54:19.133Z,86.09
2019-05-06T05:55:19.073Z,85.78
2019-05-06T05:56:19.065Z,83.91
2019-05-06T05:57:19.069Z,84.01
2019-05-06T05:58:19.041Z,83.81
2019-05-06T05:59:19.030Z,84.01
2019-05-06T06:00:19.020Z,85.78
2019-05-06T06:01:19.017Z,82.05
2019-05-06T06:02:19.037Z,84.12
2019-05-06T06:03:18.989Z,82.64
2019-05-06T06:04:18.975Z,84.91
2019-05-06T06:05:18.974Z,83.87
2019-05-06T06:06:18.979Z,85.74
2019-05-06T06:07:18.945Z,86.25
2019-05-06T06:08:18.956Z,86.15
2019-05-06T06:09:18.926Z,87.18
2019-05-06T06:10:18.919Z,86.57
2019-05-06T06:11:18.903Z,86.15
2019-05-06T06:12:18.890Z,82.53
2019-05-06T06:13:18.901Z,84.45
2019-05-06T06:14:18.868Z,84.66
2019-05-06T06:15:18.859Z,84.05
2019-05-06T06:16:18.845Z,85.60
2019-05-06T06:17:18.836Z,83.42
2019-05-06T06:18:18.859Z,84.15
2019-05-06T06:19:18.816Z,84.36
2019-05-06T06:20:18.811Z,79.80
2019-05-06T06:21:24.727Z,83.53
2019-05-06T06:22:19.792Z,83.63
2019-05-06T06:23:18.797Z,82.80
2019-05-06T06:24:18.766Z,81.11
2019-05-06T06:25:18.755Z,84.83
2019-05-06T06:26:18.740Z,85.04
2019-05-06T06:27:18.728Z,83.49
2019-05-06T06:28:18.748Z,83.90
2019-05-06T06:29:18.710Z,79.94
2019-05-06T06:30:18.700Z,83.59
2019-05-06T06:31:18.693Z,83.04
2019-05-06T06:32:18.681Z,83.55
2019-05-06T06:33:18.664Z,80.70
2019-05-06T06:34:18.674Z,82.00
2019-05-06T06:35:19.199Z,82.93
2019-05-06T06:36:18.636Z,80.97
2019-05-06T06:37:18.621Z,82.73
2019-05-06T06:38:18.610Z,83.04
2019-05-06T06:39:18.651Z,83.14
2019-05-06T06:40:18.592Z,82.00
2019-05-06T06:41:18.578Z,79.01
2019-05-06T06:42:18.569Z,79.94
2019-05-06T06:43:18.582Z,80.15
2019-05-06T06:44:18.547Z,82.21
2019-05-06T06:45:18.560Z,83.55
2019-05-06T06:46:18.531Z,83.31
2019-05-06T06:47:18.521Z,83.62
2019-05-06T06:48:18.505Z,82.52
2019-05-06T06:49:18.491Z,82.38
2019-05-06T06:50:18.513Z,83.51
2019-05-06T06:51:18.477Z,82.89
2019-05-06T06:52:18.469Z,82.38
2019-05-06T06:53:18.456Z,80.73
2019-05-06T06:54:18.438Z,80.83
2019-05-06T06:55:18.642Z,81.76
2019-05-06T06:56:18.424Z,81.35
2019-05-06T06:57:18.409Z,83.41
2019-05-06T06:58:18.399Z,83.10
2019-05-06T06:59:18.422Z,81.14
2019-05-06T07:00:18.375Z,81.24
2019-05-06T07:01:18.681Z,79.18
2019-05-06T07:02:18.355Z,80.62
2019-05-06T07:03:18.384Z,78.97
2019-05-06T07:04:18.378Z,82.34
2019-05-06T07:05:25.503Z,84.20
2019-05-06T07:06:19.328Z,83.58
2019-05-06T07:07:18.309Z,83.00
2019-05-06T07:08:32.097Z,80.58
2019-05-06T07:09:19.285Z,81.45
2019-05-06T07:10:18.315Z,82.89
2019-05-06T07:11:18.275Z,82.75
2019-05-06T07:12:18.287Z,83.37
2019-05-06T07:13:18.246Z,83.37
2019-05-06T07:14:18.237Z,83.68
2019-05-06T07:15:18.226Z,83.48
2019-05-06T07:16:20.487Z,83.68
2019-05-06T07:17:18.209Z,80.48
2019-05-06T07:18:18.208Z,81.51
2019-05-06T07:19:18.181Z,82.34
2019-05-06T07:20:18.170Z,79.86
2019-05-06T07:21:18.200Z,81.56
2019-05-06T07:22:18.159Z,82.03
2019-05-06T07:23:18.138Z,81.31
2019-05-06T07:24:18.133Z,82.75
2019-05-06T07:25:18.115Z,81.66
2019-05-06T07:26:18.127Z,80.79
2019-05-06T07:27:18.094Z,79.86
2019-05-06T07:28:18.086Z,81.41
2019-05-06T07:29:23.445Z,81.72
2019-05-06T07:30:19.061Z,81.72
2019-05-06T07:31:22.784Z,81.00
2019-05-06T07:32:19.043Z,81.00
2019-05-06T07:33:18.042Z,80.38
2019-05-06T07:34:18.020Z,80.90
2019-05-06T07:35:18.007Z,82.65
2019-05-06T07:36:20.122Z,83.37
2019-05-06T07:37:18.004Z,81.21
2019-05-06T07:38:17.978Z,82.65
2019-05-06T07:39:18.030Z,82.03
2019-05-06T07:40:17.973Z,82.03
2019-05-06T07:41:17.978Z,81.51
2019-05-06T07:42:17.945Z,82.75
2019-05-06T07:43:17.924Z,83.27
2019-05-06T07:44:17.915Z,82.71
2019-05-06T07:45:17.903Z,83.13
2019-05-06T07:46:17.914Z,83.17
2019-05-06T07:47:17.899Z,82.30
2019-05-06T07:48:17.893Z,82.45
2019-05-06T07:49:17.864Z,82.86
2019-05-06T07:50:17.856Z,81.68
2019-05-06T07:51:17.903Z,80.04
2019-05-06T07:52:17.829Z,80.76
2019-05-06T07:53:17.826Z,81.89
2019-05-06T07:54:17.815Z,81.79
2019-05-06T07:55:17.804Z,82.40
2019-05-06T07:56:17.792Z,82.71
2019-05-06T07:57:17.804Z,81.23
2019-05-06T07:58:17.769Z,82.30
2019-05-06T07:59:17.755Z,81.17
2019-05-06T08:00:17.748Z,80.72
2019-05-06T08:01:17.755Z,81.27
2019-05-06T08:02:17.739Z,81.68
2019-05-06T08:03:17.714Z,81.79
2019-05-06T08:04:17.705Z,82.10
2019-05-06T08:05:17.692Z,82.40
2019-05-06T08:06:17.683Z,82.20
2019-05-06T08:07:17.713Z,81.07
2019-05-06T08:08:17.655Z,81.17
2019-05-06T08:09:17.652Z,79.52
2019-05-06T08:10:17.659Z,81.07
2019-05-06T08:11:17.631Z,80.30
2019-05-06T08:12:17.632Z,80.34
2019-05-06T08:13:17.603Z,79.79
2019-05-06T08:14:17.591Z,80.24
2019-05-06T08:15:17.590Z,79.79
2019-05-06T08:16:17.581Z,80.72
2019-05-06T08:17:17.563Z,80.51
2019-05-06T08:18:17.573Z,80.41
2019-05-06T08:19:17.538Z,80.72
2019-05-06T08:20:17.529Z,80.37
2019-05-06T08:21:17.518Z,80.58
2019-05-06T08:22:17.521Z,80.93
2019-05-06T08:23:17.523Z,80.79
2019-05-06T08:24:17.493Z,80.89
2019-05-06T08:25:17.479Z,81.77
2019-05-06T08:26:18.072Z,81.47
2019-05-06T08:27:17.461Z,78.86
2019-05-06T08:28:17.498Z,80.19
2019-05-06T08:29:17.429Z,76.90
2019-05-06T08:30:17.474Z,76.70
2019-05-06T08:31:17.429Z,77.00
2019-05-06T08:32:17.397Z,75.56
2019-05-06T08:33:17.394Z,75.49
2019-05-06T08:34:17.403Z,75.60
2019-05-06T08:35:17.366Z,75.29
2019-05-06T08:36:17.368Z,76.42
2019-05-06T08:37:17.351Z,77.14
2019-05-06T08:38:17.377Z,76.21
2019-05-06T08:39:17.335Z,75.49
2019-05-06T08:40:17.315Z,76.11
2019-05-06T08:41:17.312Z,75.81
2019-05-06T08:42:17.362Z,76.73
2019-05-06T08:43:17.323Z,75.39
2019-05-06T08:44:17.297Z,74.88
2019-05-06T08:45:17.268Z,75.70
2019-05-06T08:46:17.261Z,76.42
2019-05-06T08:47:17.243Z,77.14
2019-05-06T08:48:17.233Z,74.98
2019-05-06T08:49:17.278Z,75.90
2019-05-06T08:50:17.212Z,75.29
2019-05-06T08:51:17.210Z,73.54
2019-05-06T08:52:17.219Z,73.43
2019-05-06T08:53:17.175Z,73.50
2019-05-06T08:54:17.194Z,74.33
2019-05-06T08:55:17.151Z,74.12
2019-05-06T08:56:17.148Z,73.61
2019-05-06T08:57:17.138Z,73.61
2019-05-06T08:58:17.137Z,75.35
2019-05-06T08:59:17.128Z,75.56
2019-05-06T09:00:17.107Z,73.68
2019-05-06T09:01:17.092Z,74.33
2019-05-06T09:02:17.079Z,75.52
2019-05-06T09:03:17.104Z,75.94
2019-05-06T09:04:17.088Z,76.86
2019-05-06T09:05:17.059Z,75.18
2019-05-06T09:06:29.764Z,73.13
2019-05-06T09:07:18.051Z,75.39
2019-05-06T09:08:17.021Z,75.46
2019-05-06T09:09:17.039Z,74.87
2019-05-06T09:10:17.001Z,74.57
2019-05-06T09:11:16.985Z,74.46
2019-05-06T09:12:16.970Z,74.33
2019-05-06T09:13:16.978Z,72.06
2019-05-06T09:14:17.725Z,75.35
2019-05-06T09:15:16.937Z,74.19
2019-05-06T09:16:16.934Z,74.05
2019-05-06T09:17:16.923Z,74.43
2019-05-06T09:18:16.908Z,75.73
2019-05-06T09:19:16.901Z,73.98
2019-05-06T09:20:16.911Z,72.72
2019-05-06T09:21:16.871Z,70.97
2019-05-06T09:22:16.871Z,70.56
2019-05-06T09:23:16.852Z,69.43
2019-05-06T09:24:16.840Z,69.43
2019-05-06T09:25:16.853Z,72.00
2019-05-06T09:26:16.825Z,72.10
2019-05-06T09:27:16.808Z,68.75
2019-05-06T09:28:16.828Z,71.08
2019-05-06T09:29:16.789Z,71.72
2019-05-06T09:30:16.800Z,69.78
2019-05-06T09:31:16.780Z,71.39
2019-05-06T09:32:16.763Z,70.77
2019-05-06T09:33:16.745Z,72.10
2019-05-06T09:34:16.733Z,72.10
2019-05-06T09:35:16.756Z,69.61
2019-05-06T09:36:16.709Z,70.94
2019-05-06T09:37:16.734Z,71.42
2019-05-06T09:38:16.690Z,73.06
2019-05-06T09:39:16.681Z,69.06
2019-05-06T09:40:16.716Z,67.94
2019-05-06T09:41:16.659Z,68.35
2019-05-06T09:42:16.670Z,69.37
2019-05-06T09:43:16.639Z,67.40
2019-05-06T09:44:16.634Z,69.37
2019-05-06T09:45:16.631Z,72.44
2019-05-06T09:46:16.629Z,72.72
2019-05-06T09:47:16.597Z,70.77
2019-05-06T09:48:16.590Z,70.74
2019-05-06T09:49:16.574Z,69.31
2019-05-06T09:50:16.570Z,68.18
2019-05-06T09:51:16.569Z,69.38
2019-05-06T09:52:16.542Z,71.22
2019-05-06T09:53:16.531Z,70.09
2019-05-06T09:54:16.519Z,69.17
2019-05-06T09:55:16.511Z,69.38
2019-05-06T09:56:16.527Z,67.74
2019-05-06T09:57:16.487Z,67.74
2019-05-06T09:58:16.480Z,66.44
2019-05-06T09:59:16.468Z,67.57
2019-05-06T10:00:16.457Z,68.18
2019-05-06T10:01:16.493Z,68.38
2019-05-06T10:02:16.433Z,67.77
2019-05-06T10:03:16.421Z,67.36
2019-05-06T10:04:16.412Z,66.44
2019-05-06T10:05:16.399Z,66.44
2019-05-06T10:06:16.405Z,65.65
2019-05-06T10:07:16.399Z,64.32
2019-05-06T10:08:16.373Z,66.30
2019-05-06T10:09:16.693Z,68.41
2019-05-06T10:10:17.881Z,69.37
2019-05-06T10:11:16.336Z,69.13
2019-05-06T10:12:16.392Z,67.94
2019-05-06T10:13:16.307Z,67.43
2019-05-06T10:14:16.308Z,67.86
2019-05-06T10:15:16.307Z,69.47
2019-05-06T10:16:16.282Z,68.79
2019-05-06T10:17:16.311Z,69.40
2019-05-06T10:18:16.258Z,69.40
2019-05-06T10:19:16.252Z,70.50
2019-05-06T10:20:16.249Z,72.86
2019-05-06T10:21:16.224Z,68.11
2019-05-06T10:22:16.221Z,66.57
2019-05-06T10:23:16.239Z,66.27
2019-05-06T10:24:16.213Z,66.16
2019-05-06T10:25:16.187Z,67.36
2019-05-06T10:26:16.180Z,68.08
2019-05-06T10:27:16.188Z,68.97
2019-05-06T10:28:16.155Z,67.43
2019-05-06T10:29:16.712Z,67.97
2019-05-06T10:30:16.127Z,67.33
2019-05-06T10:31:16.121Z,66.24
2019-05-06T10:32:16.136Z,66.34
2019-05-06T10:33:16.103Z,67.54
2019-05-06T10:34:16.146Z,68.05
2019-05-06T10:35:16.077Z,67.64
2019-05-06T10:36:16.063Z,63.72
2019-05-06T10:37:19.095Z,65.49
2019-05-06T10:38:16.122Z,66.31
2019-05-06T10:39:16.033Z,65.97
2019-05-06T10:40:16.041Z,66.38
2019-05-06T10:41:16.010Z,65.97
2019-05-06T10:42:16.003Z,64.23
2019-05-06T10:43:16.025Z,64.03
2019-05-06T10:44:15.982Z,63.72
2019-05-06T10:45:15.994Z,65.36
2019-05-06T10:46:15.953Z,64.64
2019-05-06T10:47:15.964Z,64.23
2019-05-06T10:48:15.938Z,64.23
2019-05-06T10:49:15.954Z,65.25
2019-05-06T10:50:15.921Z,63.31
2019-05-06T10:51:17.069Z,64.74
2019-05-06T10:52:15.891Z,64.74
2019-05-06T10:53:15.901Z,62.90
2019-05-06T10:54:15.897Z,62.80
2019-05-06T10:55:15.858Z,64.43
2019-05-06T10:56:15.848Z,62.80
2019-05-06T10:57:15.861Z,63.00
2019-05-06T10:58:15.825Z,64.84
2019-05-06T10:59:15.842Z,65.36
2019-05-06T11:00:15.806Z,64.84
2019-05-06T11:01:15.814Z,63.00
2019-05-06T11:02:15.782Z,63.41
2019-05-06T11:03:15.774Z,63.82
2019-05-06T11:04:16.760Z,64.23
2019-05-06T11:05:15.758Z,63.54
2019-05-06T11:06:15.745Z,63.03
2019-05-06T11:07:28.252Z,63.03
2019-05-06T11:08:16.723Z,62.21
2019-05-06T11:09:16.513Z,63.03
2019-05-06T11:10:23.991Z,63.54
2019-05-06T11:11:31.329Z,64.36
2019-05-06T11:12:16.719Z,64.98
2019-05-06T11:13:15.671Z,64.87
2019-05-06T11:14:15.676Z,64.06
2019-05-06T11:15:15.668Z,64.39
2019-05-06T11:16:16.984Z,64.47
2019-05-06T11:17:15.637Z,65.08
2019-05-06T11:18:15.654Z,66.31
2019-05-06T11:19:15.606Z,64.87
2019-05-06T11:20:15.614Z,64.06
2019-05-06T11:21:15.582Z,64.87
2019-05-06T11:22:15.569Z,63.68
2019-05-06T11:23:15.569Z,63.78
2019-05-06T11:24:15.545Z,64.80
2019-05-06T11:25:15.558Z,65.11
2019-05-06T11:26:15.788Z,65.49
2019-05-06T11:27:27.480Z,64.29
2019-05-06T11:28:16.502Z,64.09
2019-05-06T11:29:15.495Z,64.09
2019-05-06T11:30:15.483Z,63.75
2019-05-06T11:31:15.487Z,63.34
2019-05-06T11:32:15.461Z,63.88
2019-05-06T11:33:15.488Z,63.26
2019-05-06T11:34:15.453Z,64.18
2019-05-06T11:35:15.436Z,62.35
2019-05-06T11:36:15.461Z,63.06
2019-05-06T11:37:15.409Z,64.29
2019-05-06T11:38:15.397Z,64.70
2019-05-06T11:39:15.387Z,62.93
2019-05-06T11:40:16.991Z,60.81
2019-05-06T11:41:15.369Z,60.91
2019-05-06T11:42:27.993Z,62.55
2019-05-06T11:43:16.339Z,64.29
2019-05-06T11:44:15.335Z,64.18
2019-05-06T11:45:15.322Z,64.39
2019-05-06T11:46:15.315Z,64.29
2019-05-06T11:47:15.321Z,64.39
2019-05-06T11:48:15.295Z,64.09
2019-05-06T11:49:15.279Z,63.06
2019-05-06T11:50:15.269Z,62.24
2019-05-06T11:51:15.254Z,63.47
2019-05-06T11:52:15.292Z,64.09
2019-05-06T11:53:15.248Z,63.06
2019-05-06T11:54:20.793Z,63.20
2019-05-06T11:55:27.789Z,61.66
2019-05-06T11:56:16.200Z,62.88
2019-05-06T11:57:15.188Z,62.99
2019-05-06T11:58:15.208Z,63.50
2019-05-06T11:59:15.168Z,63.20
2019-05-06T12:00:15.160Z,63.70
2019-05-06T12:01:15.154Z,62.99
2019-05-06T12:02:15.144Z,61.86
2019-05-06T12:03:15.147Z,63.50
2019-05-06T12:04:15.111Z,63.29
2019-05-06T12:05:15.106Z,64.14
2019-05-06T12:06:15.098Z,64.65
2019-05-06T12:07:16.157Z,63.73
2019-05-06T12:08:15.812Z,64.35
2019-05-06T12:09:16.928Z,65.07
2019-05-06T12:10:15.051Z,65.37
2019-05-06T12:11:15.046Z,64.76
2019-05-06T12:12:15.043Z,65.99
2019-05-06T12:13:15.022Z,65.48
2019-05-06T12:14:15.060Z,64.35
2019-05-06T12:15:14.994Z,63.50
2019-05-06T12:16:14.993Z,64.32
2019-05-06T12:17:14.978Z,64.22
2019-05-06T12:18:15.002Z,62.68
2019-05-06T12:19:14.988Z,61.76
2019-05-06T12:20:14.944Z,63.09
2019-05-06T12:21:19.059Z,63.20
2019-05-06T12:22:14.940Z,62.68
2019-05-06T12:23:15.708Z,63.91
2019-05-06T12:24:14.928Z,64.01
2019-05-06T12:25:15.633Z,65.65
2019-05-06T12:26:14.880Z,64.42
2019-05-06T12:27:14.882Z,61.83
2019-05-06T12:28:17.540Z,62.58
2019-05-06T12:29:14.879Z,61.11
2019-05-06T12:30:14.841Z,61.15
2019-05-06T12:31:14.831Z,62.76
2019-05-06T12:32:14.830Z,63.06
2019-05-06T12:33:14.806Z,62.24
2019-05-06T12:34:14.848Z,62.55
2019-05-06T12:35:14.816Z,63.06
2019-05-06T12:36:14.771Z,63.03
2019-05-06T12:37:14.808Z,63.75
2019-05-06T12:38:26.776Z,63.17
2019-05-06T12:39:18.537Z,63.85
2019-05-06T12:40:14.750Z,60.17
2019-05-06T12:41:14.738Z,60.78
2019-05-06T12:42:14.727Z,63.24
2019-05-06T12:43:14.705Z,63.95
2019-05-06T12:44:14.689Z,63.24
2019-05-06T12:45:14.705Z,62.73
2019-05-06T12:46:14.666Z,62.49
2019-05-06T12:47:14.659Z,63.21
2019-05-06T12:48:14.673Z,62.49
2019-05-06T12:49:14.633Z,62.90
2019-05-06T12:50:14.621Z,63.41
2019-05-06T12:51:14.642Z,61.16
2019-05-06T12:52:14.599Z,61.36